createdAt,value
2022-08-22T02:29:17.012Z,19.81
2022-08-22T02:31:57.422Z,19.84
2022-08-22T02:35:11.466Z,20.10
2022-08-22T04:23:21.539Z,20.88
2022-08-22T04:26:54.370Z,20.96
2022-08-22T04:29:53.408Z,20.88
2022-08-22T16:04:37.463Z,28.00
2022-08-22T16:12:34.914Z,27.85
2022-08-22T18:03:52.895Z,26.54
2022-08-22T18:06:30.182Z,26.52
2022-08-22T18:09:16.814Z,26.56
2022-08-22T18:11:54.782Z,26.55
2022-08-22T18:15:00.187Z,26.41
2022-08-22T18:17:47.470Z,26.49
2022-08-22T18:20:26.947Z,26.31
2022-08-22T18:23:39.048Z,26.27
2022-08-22T18:27:04.267Z,26.35
2022-08-22T18:29:52.251Z,26.40
2022-08-22T18:40:07.799Z,26.14
2022-08-22T18:43:09.024Z,25.92
2022-08-22T18:51:26.473Z,25.78
2022-08-22T18:54:26.954Z,25.75
2022-08-22T19:01:24.629Z,25.85
2022-08-22T19:04:22.206Z,25.77
2022-08-22T19:06:53.050Z,25.73
2022-08-22T19:09:38.777Z,25.68
2022-08-22T19:12:36.452Z,25.57
2022-08-22T19:15:43.899Z,25.47
2022-08-22T19:18:33.355Z,25.42
2022-08-22T19:21:45.620Z,25.49
2022-08-22T19:24:37.036Z,25.45
2022-08-22T19:27:07.383Z,25.45
2022-08-22T19:29:34.720Z,25.40
2022-08-22T19:32:05.964Z,25.24
2022-08-22T19:34:47.930Z,25.12
2022-08-22T19:37:32.161Z,25.28
2022-08-22T19:40:32.679Z,25.11
2022-08-22T19:43:41.934Z,25.19
2022-08-22T19:47:04.856Z,25.14
2022-08-22T19:49:32.157Z,25.11
2022-08-22T19:52:20.388Z,25.08
2022-08-22T19:55:11.319Z,25.04
2022-08-22T19:57:57.419Z,25.01
2022-08-22T20:00:50.290Z,24.93
2022-08-22T20:03:37.675Z,24.84
2022-08-22T20:06:33.534Z,24.91
2022-08-22T20:09:07.534Z,24.86
2022-08-22T20:11:50.038Z,24.76
2022-08-22T20:14:31.058Z,24.74
2022-08-22T20:17:02.113Z,24.78
2022-08-22T20:19:39.388Z,24.74
2022-08-22T20:22:30.309Z,24.72
2022-08-22T20:24:57.507Z,24.69
2022-08-22T20:27:36.328Z,24.54
2022-08-22T20:30:16.265Z,24.67
2022-08-22T20:32:51.643Z,24.55
2022-08-22T20:35:26.969Z,24.66
2022-08-22T20:38:06.666Z,24.55
2022-08-22T20:40:59.441Z,24.42
2022-08-22T20:43:36.860Z,24.58
2022-08-22T20:46:25.339Z,24.56
2022-08-22T20:49:01.132Z,24.50
2022-08-22T20:51:32.491Z,24.28
2022-08-22T20:54:15.582Z,24.46
2022-08-22T20:56:58.238Z,24.44
2022-08-22T20:59:36.258Z,24.24
2022-08-22T21:02:24.609Z,24.33
2022-08-22T21:04:57.174Z,24.26
2022-08-22T21:07:31.351Z,24.26
2022-08-22T21:10:25.281Z,24.22
2022-08-22T21:13:05.236Z,24.15
2022-08-22T21:15:39.607Z,24.10
2022-08-22T21:18:08.072Z,24.10
2022-08-22T21:20:37.783Z,24.05
2022-08-22T21:23:14.668Z,23.85
2022-08-22T21:26:12.720Z,23.94
2022-08-22T21:28:57.000Z,23.97
2022-08-22T21:31:28.480Z,23.92
2022-08-22T21:33:57.185Z,23.91
2022-08-22T21:36:32.015Z,23.94
2022-08-22T21:39:04.375Z,23.96
2022-08-22T21:41:49.603Z,23.91
2022-08-22T21:48:38.058Z,23.79
2022-08-22T21:51:23.510Z,23.71
2022-08-22T21:53:53.409Z,23.48
2022-08-22T21:56:38.164Z,23.63
2022-08-22T21:59:50.607Z,23.64
2022-08-22T22:02:49.879Z,23.59
2022-08-22T22:06:07.796Z,23.51
2022-08-22T22:08:35.216Z,23.38
2022-08-22T22:11:08.708Z,23.52
2022-08-22T22:13:36.159Z,23.38
2022-08-22T22:16:07.043Z,23.40
2022-08-22T22:18:36.128Z,23.45
2022-08-22T22:21:04.186Z,23.41
2022-08-22T22:23:31.651Z,23.32
2022-08-22T22:26:03.173Z,23.46
2022-08-22T22:28:38.206Z,23.42
2022-08-22T22:31:05.816Z,23.40
2022-08-22T22:33:37.007Z,23.23
2022-08-22T22:36:09.895Z,23.37
2022-08-22T22:38:39.516Z,23.29
2022-08-22T22:41:07.752Z,23.35
2022-08-22T22:43:35.070Z,23.34
2022-08-22T22:46:04.769Z,23.29
2022-08-22T22:48:33.037Z,23.33
2022-08-22T22:51:06.272Z,23.22
2022-08-22T22:53:38.323Z,23.24
2022-08-22T22:56:09.233Z,23.18
2022-08-22T22:58:38.407Z,23.21
2022-08-22T23:01:10.324Z,23.28
2022-08-22T23:03:38.074Z,23.19
2022-08-22T23:06:14.979Z,23.29
2022-08-22T23:08:42.605Z,23.24
2022-08-22T23:11:17.945Z,23.26
2022-08-22T23:13:45.711Z,23.21
2022-08-22T23:16:16.539Z,23.16
2022-08-22T23:18:44.728Z,22.97
2022-08-22T23:21:30.113Z,23.10
2022-08-22T23:23:59.456Z,22.97
2022-08-22T23:26:29.042Z,23.07
2022-08-22T23:28:57.471Z,23.06
2022-08-22T23:31:35.584Z,23.05
2022-08-22T23:34:25.439Z,22.93
2022-08-22T23:36:56.190Z,23.03
2022-08-22T23:39:24.983Z,23.04
2022-08-22T23:41:52.866Z,23.01
2022-08-22T23:44:22.771Z,23.03
2022-08-22T23:46:51.098Z,22.79
2022-08-22T23:49:19.707Z,22.87
2022-08-22T23:51:48.727Z,22.84
2022-08-22T23:54:16.202Z,22.95
2022-08-22T23:56:50.539Z,22.93
2022-08-22T23:59:23.628Z,22.88
